Terminal Aerodrome Forecast
Issued by NWS Wilmington, OH

Current Version | Previous Version | Graphics & Text | Print | Product List | Glossary On
Versions: 1 2 3 4 5 6 7 8 9 10 11 12 13 14 15 16 17 18 19 20 21 22 23
000
FTUS41 KILN 272000 AAA
TAFCMH
TAF AMD
KCMH 272002Z 2720/2818 22012G20KT P6SM SCT040
     FM272200 22010G18KT P6SM VCTS BKN050CB
     FM280200 25007KT P6SM SCT050
     FM280900 33003KT P6SM SCT250
     FM281400 06006KT P6SM FEW035=

USA.gov is the U.S. government's official web portal to all federal, state and local government web resources and services.